Terminal Aerodrome Forecast
Issued by NWS Shreveport, LA

Home | Current Version | Previous Version | Text Only | Print | Product List | Glossary On
Versions: 1 2 3 4 5 6 7 8 9 10 11 12 13 14 15 16 17 18 19 20 21 22 23 24 25
000
FTUS44 KSHV 290025 AAA
TAFELD
TAF AMD
KELD 290025Z 2900/2924 VRB04KT P6SM SCT008 SCT060 OVC150
      TEMPO 2900/2904 BKN010
     FM290600 20002KT 5SM BR SCT060 BKN150 BKN250
      TEMPO 2909/2913 3SM BR
     FM291300 22004KT P6SM BKN150 BKN250
     FM291600 23006KT P6SM SCT035 SCT150 SCT250
     FM291800 24007KT P6SM VCTS SCT045CB SCT250=

USA.gov is the U.S. government's official web portal to all federal, state and local government web resources and services.